createdAt,value
2017-08-18T00:00:27.799Z,0
2017-08-18T00:01:08.262Z,0
2017-08-18T00:01:48.718Z,0
2017-08-18T00:02:29.179Z,0
2017-08-18T00:03:09.628Z,0
2017-08-18T00:03:50.119Z,0
2017-08-18T00:06:23.140Z,0
2017-08-18T00:07:03.626Z,0
2017-08-18T00:07:44.113Z,0
2017-08-18T00:08:26.024Z,0
2017-08-18T00:09:06.511Z,0
2017-08-18T00:09:47.004Z,0
2017-08-18T00:10:27.491Z,0
2017-08-18T00:11:08.440Z,0
2017-08-18T00:11:48.879Z,0
2017-08-18T00:14:29.113Z,0
2017-08-18T00:15:09.613Z,0
2017-08-18T00:15:50.082Z,0
2017-08-18T00:16:31.298Z,0
2017-08-18T00:17:11.798Z,0
2017-08-18T00:17:52.277Z,0
2017-08-18T00:18:32.734Z,0
2017-08-18T00:19:13.200Z,0
2017-08-18T00:19:53.659Z,0
2017-08-18T00:20:34.118Z,0
2017-08-18T00:21:14.582Z,0
2017-08-18T00:21:55.862Z,0
2017-08-18T00:22:36.336Z,0
2017-08-18T00:23:17.795Z,0
2017-08-18T00:25:30.518Z,0
2017-08-18T00:26:10.992Z,0
2017-08-18T00:26:51.467Z,0
2017-08-18T00:27:31.965Z,0
2017-08-18T00:28:12.468Z,0
2017-08-18T00:28:52.940Z,0
2017-08-18T00:29:33.421Z,0
2017-08-18T00:30:13.930Z,0
2017-08-18T00:30:54.391Z,0
2017-08-18T00:31:34.809Z,0
2017-08-18T00:32:15.274Z,0
2017-08-18T00:32:55.742Z,0
2017-08-18T00:33:36.209Z,0
2017-08-18T00:34:16.694Z,0
2017-08-18T00:34:57.163Z,0
2017-08-18T00:35:37.629Z,0
2017-08-18T00:36:18.086Z,0
2017-08-18T00:38:56.180Z,0
2017-08-18T00:39:36.667Z,0
2017-08-18T00:40:17.141Z,0
2017-08-18T00:40:58.573Z,0
2017-08-18T00:41:39.061Z,0
2017-08-18T00:42:20.082Z,0
2017-08-18T00:43:01.389Z,0
2017-08-18T00:43:41.886Z,0
2017-08-18T00:44:22.386Z,0
2017-08-18T00:47:00.471Z,0
2017-08-18T00:47:40.947Z,0
2017-08-18T00:48:21.460Z,0
2017-08-18T00:49:02.578Z,0
2017-08-18T00:49:43.058Z,0
2017-08-18T00:50:23.582Z,0
2017-08-18T00:51:04.053Z,0
2017-08-18T00:51:45.399Z,0
2017-08-18T00:52:25.887Z,0
2017-08-18T00:53:06.374Z,0
2017-08-18T00:53:46.874Z,0
2017-08-18T00:54:27.374Z,0
2017-08-18T00:55:08.400Z,0
2017-08-18T00:55:50.399Z,0
2017-08-18T00:56:30.894Z,0
2017-08-18T00:57:11.389Z,0
2017-08-18T00:57:51.889Z,0
2017-08-18T00:58:32.335Z,0
2017-08-18T00:59:12.793Z,0
2017-08-18T00:59:53.238Z,0
2017-08-18T01:02:11.037Z,0
2017-08-18T01:02:51.525Z,0
2017-08-18T01:03:32.006Z,0
2017-08-18T01:04:12.509Z,0
2017-08-18T01:04:52.983Z,0
2017-08-18T01:05:33.480Z,0
2017-08-18T01:06:14.628Z,0
2017-08-18T01:06:55.176Z,0
2017-08-18T01:07:35.738Z,0
2017-08-18T01:08:16.292Z,0
2017-08-18T01:08:56.849Z,0
2017-08-18T01:09:37.356Z,0
2017-08-18T01:12:05.280Z,0
2017-08-18T01:12:45.796Z,0
2017-08-18T01:13:26.243Z,0
2017-08-18T01:14:06.737Z,0
2017-08-18T01:14:47.219Z,0
2017-08-18T01:15:27.722Z,0
2017-08-18T01:16:08.220Z,0
2017-08-18T01:16:48.720Z,0
2017-08-18T01:17:29.794Z,0
2017-08-18T01:18:10.310Z,0
2017-08-18T01:18:50.752Z,0
2017-08-18T01:19:32.706Z,0
2017-08-18T01:20:13.195Z,0
2017-08-18T01:20:53.682Z,0
2017-08-18T01:21:34.176Z,0
2017-08-18T01:22:14.639Z,0
2017-08-18T01:22:55.082Z,0
2017-08-18T01:23:35.570Z,0
2017-08-18T01:24:16.034Z,0
2017-08-18T01:24:56.502Z,0
2017-08-18T01:25:36.957Z,0
2017-08-18T01:26:17.406Z,0
2017-08-18T01:28:35.226Z,0
2017-08-18T01:29:15.712Z,0
2017-08-18T01:29:56.177Z,0
2017-08-18T01:30:36.690Z,0
2017-08-18T01:31:17.162Z,0
2017-08-18T01:31:57.648Z,0
2017-08-18T01:32:38.148Z,0
2017-08-18T01:33:18.650Z,0
2017-08-18T01:33:59.145Z,0
2017-08-18T01:34:39.653Z,0
2017-08-18T01:35:20.119Z,0
2017-08-18T01:36:00.611Z,0
2017-08-18T01:36:41.117Z,0
2017-08-18T01:37:21.592Z,0
2017-08-18T01:38:02.059Z,0
2017-08-18T01:38:42.555Z,0
2017-08-18T01:39:23.035Z,0
2017-08-18T01:40:03.540Z,0
2017-08-18T01:40:43.988Z,0
2017-08-18T01:41:24.453Z,0
2017-08-18T01:42:04.933Z,0
2017-08-18T01:42:45.914Z,0
2017-08-18T01:43:26.389Z,0
2017-08-18T01:45:59.442Z,0
2017-08-18T01:46:39.923Z,0
2017-08-18T01:47:20.414Z,0
2017-08-18T01:48:00.890Z,0
2017-08-18T01:48:41.352Z,0
2017-08-18T01:51:09.325Z,0
2017-08-18T01:51:49.802Z,0
2017-08-18T01:52:30.295Z,0
2017-08-18T01:53:10.798Z,0
2017-08-18T01:53:51.287Z,0
2017-08-18T01:54:31.761Z,0
2017-08-18T01:55:12.280Z,0
2017-08-18T01:55:52.757Z,0
2017-08-18T01:56:33.229Z,0
2017-08-18T01:57:13.751Z,0
2017-08-18T01:57:54.233Z,0
2017-08-18T01:58:34.732Z,0
2017-08-18T01:59:15.215Z,0
2017-08-18T01:59:55.708Z,0
2017-08-18T02:00:36.211Z,0
2017-08-18T02:01:16.691Z,0
2017-08-18T02:01:57.187Z,0
2017-08-18T02:02:37.672Z,0
2017-08-18T02:03:18.138Z,0
2017-08-18T02:03:58.640Z,0
2017-08-18T02:04:39.102Z,0
2017-08-18T02:05:19.580Z,0
2017-08-18T02:06:00.077Z,0
2017-08-18T02:06:40.576Z,0
2017-08-18T02:07:21.797Z,0
2017-08-18T02:08:02.297Z,0
2017-08-18T02:08:42.783Z,0
2017-08-18T02:11:20.902Z,0
2017-08-18T02:12:01.440Z,0
2017-08-18T02:12:41.895Z,0
2017-08-18T02:13:22.537Z,0
2017-08-18T02:14:02.953Z,0
2017-08-18T02:14:43.432Z,0
2017-08-18T02:15:23.927Z,0
2017-08-18T02:16:04.431Z,0
2017-08-18T02:16:44.922Z,0
2017-08-18T02:17:25.409Z,0
2017-08-18T02:18:05.910Z,0
2017-08-18T02:18:46.389Z,0
2017-08-18T02:19:26.881Z,0
2017-08-18T02:20:07.374Z,0
2017-08-18T02:20:47.852Z,0
2017-08-18T02:21:28.340Z,0
2017-08-18T02:22:08.834Z,0
2017-08-18T02:22:49.320Z,0
2017-08-18T02:23:29.802Z,0
2017-08-18T02:24:10.266Z,0
2017-08-18T02:24:50.761Z,0
2017-08-18T02:25:31.230Z,0
2017-08-18T02:26:11.714Z,0
2017-08-18T02:26:52.196Z,0
2017-08-18T02:27:32.643Z,0
2017-08-18T02:28:13.104Z,0
2017-08-18T02:28:53.583Z,0
2017-08-18T02:29:34.092Z,0
2017-08-18T02:30:14.578Z,0
2017-08-18T02:30:55.056Z,0
2017-08-18T02:33:22.995Z,0
2017-08-18T02:34:03.457Z,0
2017-08-18T02:34:43.942Z,0
2017-08-18T02:35:24.422Z,0
2017-08-18T02:36:04.880Z,0
2017-08-18T02:38:17.589Z,0
2017-08-18T02:38:58.072Z,0
2017-08-18T02:39:39.402Z,0
2017-08-18T02:40:19.890Z,0
2017-08-18T02:41:00.381Z,0
2017-08-18T02:41:40.877Z,0
2017-08-18T02:42:21.358Z,0
2017-08-18T02:43:01.824Z,0
2017-08-18T02:43:42.276Z,0
2017-08-18T02:44:22.739Z,0
2017-08-18T02:45:03.218Z,0
2017-08-18T02:45:43.692Z,0
2017-08-18T02:46:24.149Z,0
2017-08-18T02:49:02.243Z,0
2017-08-18T02:49:42.734Z,0
2017-08-18T02:50:23.212Z,0
2017-08-18T02:51:03.710Z,0
2017-08-18T02:51:44.210Z,0
2017-08-18T02:52:24.704Z,0
2017-08-18T02:53:05.184Z,0
2017-08-18T02:53:45.684Z,0
2017-08-18T02:54:26.172Z,0
2017-08-18T02:55:06.671Z,0
2017-08-18T02:55:49.736Z,0
2017-08-18T02:58:22.812Z,0
2017-08-18T02:59:03.253Z,0
2017-08-18T02:59:43.751Z,0
2017-08-18T03:00:24.247Z,0
2017-08-18T03:01:04.743Z,0
2017-08-18T03:01:45.231Z,0
2017-08-18T03:02:25.725Z,0
2017-08-18T03:03:06.219Z,0
2017-08-18T03:03:46.708Z,0
2017-08-18T03:04:27.203Z,0
2017-08-18T03:06:55.152Z,0
2017-08-18T03:07:35.635Z,0
2017-08-18T03:08:16.124Z,0
2017-08-18T03:08:56.628Z,0
2017-08-18T03:09:37.122Z,0
2017-08-18T03:10:17.602Z,0
2017-08-18T03:10:58.102Z,0
2017-08-18T03:11:38.588Z,0
2017-08-18T03:12:19.068Z,0
2017-08-18T03:12:59.572Z,0
2017-08-18T03:13:40.081Z,0
2017-08-18T03:14:20.556Z,0
2017-08-18T03:15:01.054Z,0
2017-08-18T03:15:41.550Z,0
2017-08-18T03:16:22.029Z,0
2017-08-18T03:17:03.446Z,0
2017-08-18T03:17:44.729Z,0
2017-08-18T03:18:25.217Z,0
2017-08-18T03:19:05.703Z,0
2017-08-18T03:19:46.207Z,0
2017-08-18T03:20:26.696Z,0
2017-08-18T03:22:44.507Z,0
2017-08-18T03:23:25.009Z,0
2017-08-18T03:24:05.506Z,0
2017-08-18T03:24:45.983Z,0
2017-08-18T03:25:26.490Z,0
2017-08-18T03:26:06.970Z,0
2017-08-18T03:26:47.473Z,0
2017-08-18T03:27:27.982Z,0
2017-08-18T03:28:09.214Z,0
2017-08-18T03:28:49.721Z,0
2017-08-18T03:29:30.183Z,0
2017-08-18T03:30:10.695Z,0
2017-08-18T03:30:51.156Z,0
2017-08-18T03:31:31.652Z,0
2017-08-18T03:32:12.145Z,0
2017-08-18T03:32:52.633Z,0
2017-08-18T03:33:33.128Z,0
2017-08-18T03:34:13.606Z,0
2017-08-18T03:34:54.086Z,0
2017-08-18T03:35:34.605Z,0
2017-08-18T03:36:15.084Z,0
2017-08-18T03:38:32.891Z,0
2017-08-18T03:39:13.361Z,0
2017-08-18T03:39:53.849Z,0
2017-08-18T03:40:34.331Z,0
2017-08-18T03:41:14.820Z,0
2017-08-18T03:41:55.327Z,0
2017-08-18T03:42:35.809Z,0
2017-08-18T03:43:16.304Z,0
2017-08-18T03:43:58.470Z,0
2017-08-18T03:44:38.953Z,0
2017-08-18T03:45:19.460Z,0
2017-08-18T03:45:59.941Z,0
2017-08-18T03:46:40.417Z,0
2017-08-18T03:47:20.943Z,0
2017-08-18T03:48:01.398Z,0
2017-08-18T03:48:41.904Z,0
2017-08-18T03:49:22.401Z,0
2017-08-18T03:50:03.484Z,0
2017-08-18T03:50:43.971Z,0
2017-08-18T03:51:24.463Z,0
2017-08-18T03:52:04.942Z,0
2017-08-18T03:52:45.430Z,0
2017-08-18T03:55:23.491Z,0
2017-08-18T03:56:03.985Z,0
2017-08-18T03:56:44.487Z,0
2017-08-18T03:57:24.976Z,0
2017-08-18T03:58:05.430Z,0
2017-08-18T03:58:45.928Z,0
2017-08-18T03:59:26.421Z,0
2017-08-18T04:00:06.905Z,0
2017-08-18T04:00:47.398Z,0
2017-08-18T04:01:27.896Z,0
2017-08-18T04:02:08.368Z,0
2017-08-18T04:02:48.879Z,0
2017-08-18T04:03:29.372Z,0
2017-08-18T04:04:09.836Z,0
2017-08-18T04:04:50.330Z,0
2017-08-18T04:05:30.837Z,0
2017-08-18T04:06:11.331Z,0
2017-08-18T04:06:51.824Z,0
2017-08-18T04:07:32.328Z,0
2017-08-18T04:08:12.817Z,0
2017-08-18T04:08:53.302Z,0
2017-08-18T04:09:33.784Z,0
2017-08-18T04:10:14.272Z,0
2017-08-18T04:10:54.782Z,0
2017-08-18T04:11:35.263Z,0
2017-08-18T04:12:15.765Z,0
2017-08-18T04:12:56.261Z,0
2017-08-18T04:13:36.762Z,0
2017-08-18T04:14:17.237Z,0
2017-08-18T04:14:57.742Z,0
2017-08-18T04:15:38.236Z,0
2017-08-18T04:16:18.705Z,0
2017-08-18T04:16:59.209Z,0
2017-08-18T04:17:39.689Z,0
2017-08-18T04:18:20.149Z,0
2017-08-18T04:19:00.633Z,0
2017-08-18T04:19:41.144Z,5
2017-08-18T04:20:21.633Z,5
2017-08-18T04:21:02.119Z,5
2017-08-18T04:21:42.599Z,5
2017-08-18T04:22:23.038Z,5
2017-08-18T04:23:03.504Z,5
2017-08-18T04:25:31.449Z,5
2017-08-18T04:26:11.946Z,10
2017-08-18T04:26:52.442Z,10
2017-08-18T04:27:34.353Z,10
2017-08-18T04:28:14.838Z,10
2017-08-18T04:28:55.342Z,10
2017-08-18T04:29:35.834Z,10
2017-08-18T04:30:16.332Z,10
2017-08-18T04:30:56.817Z,10
2017-08-18T04:31:37.307Z,10
2017-08-18T04:32:17.796Z,15
2017-08-18T04:32:58.286Z,15
2017-08-18T04:33:38.782Z,15
2017-08-18T04:34:20.030Z,15
2017-08-18T04:35:00.529Z,15
2017-08-18T04:35:41.025Z,15
2017-08-18T04:36:21.505Z,15
2017-08-18T04:37:01.998Z,15
2017-08-18T04:37:42.496Z,20
2017-08-18T04:38:22.981Z,20
2017-08-18T04:39:03.472Z,20
2017-08-18T04:39:43.975Z,20
2017-08-18T04:40:24.446Z,20
2017-08-18T04:41:04.955Z,20
2017-08-18T04:41:45.453Z,20
2017-08-18T04:42:25.949Z,20
2017-08-18T04:43:06.470Z,20
2017-08-18T04:43:46.956Z,20
2017-08-18T04:44:27.453Z,25
2017-08-18T04:45:07.934Z,25
2017-08-18T04:45:48.431Z,25
2017-08-18T04:46:28.922Z,25
2017-08-18T04:47:09.403Z,25
2017-08-18T04:47:49.893Z,25
2017-08-18T04:48:31.264Z,30
2017-08-18T04:49:11.752Z,30
2017-08-18T04:49:52.217Z,30
2017-08-18T04:50:32.659Z,30
2017-08-18T04:53:10.790Z,30
2017-08-18T04:53:51.755Z,30
2017-08-18T04:54:32.235Z,30
2017-08-18T04:55:12.701Z,30
2017-08-18T04:57:40.658Z,35
2017-08-18T04:58:21.121Z,35
2017-08-18T05:00:54.111Z,35
2017-08-18T05:01:34.590Z,35
2017-08-18T05:02:15.073Z,40
2017-08-18T05:02:55.554Z,40
2017-08-18T05:03:36.028Z,40
2017-08-18T05:04:16.525Z,40
2017-08-18T05:04:57.027Z,40
2017-08-18T05:05:37.505Z,40
2017-08-18T05:06:17.984Z,40
2017-08-18T05:06:58.464Z,40
2017-08-18T05:07:38.951Z,45
2017-08-18T05:08:19.423Z,45
2017-08-18T05:08:59.919Z,50
2017-08-18T05:09:40.400Z,50
2017-08-18T05:10:20.889Z,50
2017-08-18T05:11:01.354Z,55
2017-08-18T05:13:14.070Z,55
2017-08-18T05:13:54.545Z,55
2017-08-18T05:14:35.023Z,60
2017-08-18T05:15:15.516Z,60
2017-08-18T05:15:56.007Z,60
2017-08-18T05:16:36.494Z,55
2017-08-18T05:17:16.979Z,55
2017-08-18T05:17:57.479Z,50
2017-08-18T05:18:37.963Z,50
2017-08-18T05:19:18.460Z,45
2017-08-18T05:19:58.979Z,45
2017-08-18T05:20:39.433Z,45
2017-08-18T05:21:19.915Z,45
2017-08-18T05:22:00.373Z,45
2017-08-18T05:22:40.836Z,45
2017-08-18T05:23:21.276Z,45
2017-08-18T05:24:01.749Z,45
2017-08-18T05:26:34.760Z,45
2017-08-18T05:27:15.236Z,45
2017-08-18T05:27:55.726Z,45
2017-08-18T05:28:36.181Z,50
2017-08-18T05:29:16.674Z,50
2017-08-18T05:29:57.968Z,50
2017-08-18T05:30:38.475Z,55
2017-08-18T05:31:18.962Z,55
2017-08-18T05:31:59.441Z,60
2017-08-18T05:32:39.913Z,65
2017-08-18T05:33:20.326Z,75
2017-08-18T05:35:58.465Z,100
2017-08-18T05:36:38.942Z,110
2017-08-18T05:37:19.450Z,115
2017-08-18T05:37:59.898Z,120
2017-08-18T05:38:40.392Z,130
2017-08-18T05:39:20.800Z,135
2017-08-18T05:41:48.798Z,130
2017-08-18T05:42:29.292Z,125
2017-08-18T05:43:09.795Z,120
2017-08-18T05:43:50.290Z,115
2017-08-18T05:44:30.771Z,115
2017-08-18T05:45:11.277Z,110
2017-08-18T05:45:51.762Z,105
2017-08-18T05:46:32.238Z,105
2017-08-18T05:47:12.682Z,105
2017-08-18T05:47:53.138Z,100
2017-08-18T05:48:33.601Z,100
2017-08-18T05:49:14.080Z,100
2017-08-18T05:49:54.535Z,100
2017-08-18T05:50:34.980Z,100
2017-08-18T05:51:15.474Z,95
2017-08-18T05:53:53.640Z,100
2017-08-18T05:54:34.083Z,100
2017-08-18T05:55:14.554Z,100
2017-08-18T05:55:55.014Z,100
2017-08-18T05:56:35.480Z,105
2017-08-18T05:57:15.940Z,110
2017-08-18T05:59:54.062Z,125
2017-08-18T06:00:34.560Z,130
2017-08-18T06:01:15.074Z,130
2017-08-18T06:03:53.214Z,130
2017-08-18T06:04:33.702Z,130
2017-08-18T06:05:14.212Z,130
2017-08-18T06:05:54.662Z,130
2017-08-18T06:06:35.147Z,130
2017-08-18T06:09:08.181Z,130
2017-08-18T06:09:48.692Z,125
2017-08-18T06:10:29.172Z,120
2017-08-18T06:11:09.660Z,115
2017-08-18T06:11:51.582Z,110
2017-08-18T06:12:32.058Z,110
2017-08-18T06:13:12.543Z,115
2017-08-18T06:13:53.032Z,115
2017-08-18T06:14:33.562Z,115
2017-08-18T06:15:14.002Z,115
2017-08-18T06:15:54.481Z,115
2017-08-18T06:16:35.059Z,125
2017-08-18T06:17:15.508Z,125
2017-08-18T06:19:48.573Z,115
2017-08-18T06:20:29.057Z,115
2017-08-18T06:21:09.518Z,115
2017-08-18T06:21:49.996Z,115
2017-08-18T06:22:30.491Z,110
2017-08-18T06:23:11.059Z,110
2017-08-18T06:23:51.525Z,105
2017-08-18T06:24:31.988Z,105
2017-08-18T06:25:12.450Z,110
2017-08-18T06:25:52.892Z,110
2017-08-18T06:26:33.315Z,110
2017-08-18T06:29:06.348Z,110
2017-08-18T06:29:46.846Z,110
2017-08-18T06:30:27.318Z,110
2017-08-18T06:31:08.411Z,105
2017-08-18T06:31:48.911Z,105
2017-08-18T06:32:29.384Z,105
2017-08-18T06:33:09.848Z,105
2017-08-18T06:33:51.067Z,110
2017-08-18T06:36:19.108Z,130
2017-08-18T06:36:59.530Z,135
2017-08-18T06:37:39.988Z,145
2017-08-18T06:38:20.529Z,150
2017-08-18T06:39:00.889Z,155
2017-08-18T06:39:41.330Z,160
2017-08-18T06:40:22.483Z,160
2017-08-18T06:41:02.930Z,155
2017-08-18T06:41:43.344Z,155
2017-08-18T06:42:23.844Z,150
2017-08-18T06:43:04.816Z,145
2017-08-18T06:43:45.277Z,140
2017-08-18T06:44:25.676Z,130
2017-08-18T06:45:06.134Z,125
2017-08-18T06:45:46.557Z,120
2017-08-18T06:46:27.993Z,115
2017-08-18T06:47:08.422Z,110
2017-08-18T06:47:48.882Z,110
2017-08-18T06:48:29.370Z,105
2017-08-18T06:49:09.769Z,105
2017-08-18T06:49:50.230Z,100
2017-08-18T06:50:30.806Z,100
2017-08-18T06:51:11.328Z,105
2017-08-18T06:51:51.767Z,105
2017-08-18T06:52:32.219Z,110
2017-08-18T06:53:12.661Z,110
2017-08-18T06:53:53.168Z,115
2017-08-18T06:54:33.595Z,115
2017-08-18T06:55:14.223Z,120
2017-08-18T06:55:55.438Z,120
2017-08-18T06:56:35.866Z,130
2017-08-18T06:57:16.693Z,130
2017-08-18T06:57:57.006Z,135
2017-08-18T06:58:37.617Z,145
2017-08-18T06:59:18.190Z,145
2017-08-18T06:59:58.831Z,150
2017-08-18T07:00:39.585Z,150
2017-08-18T07:01:20.202Z,155
2017-08-18T07:02:00.755Z,160
2017-08-18T07:02:41.545Z,165
2017-08-18T07:03:22.181Z,170
2017-08-18T07:04:02.826Z,180
2017-08-18T07:04:43.464Z,185
2017-08-18T07:05:24.026Z,185
2017-08-18T07:07:41.956Z,185
2017-08-18T07:08:22.488Z,190
2017-08-18T07:09:03.039Z,195
2017-08-18T07:09:43.572Z,195
2017-08-18T07:10:24.199Z,200
2017-08-18T07:11:04.770Z,210
2017-08-18T07:11:45.335Z,215
2017-08-18T07:12:25.976Z,220
2017-08-18T07:13:06.553Z,225
2017-08-18T07:13:47.185Z,230
2017-08-18T07:14:27.772Z,225
2017-08-18T07:15:08.366Z,225
2017-08-18T07:15:48.920Z,225
2017-08-18T07:16:29.488Z,230
2017-08-18T07:17:10.069Z,240
2017-08-18T07:17:50.719Z,260
2017-08-18T07:18:31.304Z,275
2017-08-18T07:19:11.901Z,295
2017-08-18T07:19:52.505Z,300
2017-08-18T07:20:33.114Z,320
2017-08-18T07:21:13.702Z,380
2017-08-18T07:21:54.299Z,375
2017-08-18T07:22:34.960Z,360
2017-08-18T07:23:15.591Z,405
2017-08-18T07:23:56.183Z,425
2017-08-18T07:24:36.806Z,400
2017-08-18T07:25:17.975Z,400
2017-08-18T07:25:58.574Z,365
2017-08-18T07:26:39.165Z,350
2017-08-18T07:27:20.458Z,340
2017-08-18T07:28:01.088Z,370
2017-08-18T07:28:41.688Z,425
2017-08-18T07:29:22.253Z,565
2017-08-18T07:30:02.841Z,400
2017-08-18T07:30:43.404Z,375
2017-08-18T07:31:23.971Z,805
2017-08-18T07:32:04.535Z,330
2017-08-18T07:32:45.127Z,330
2017-08-18T07:33:25.753Z,340
2017-08-18T07:34:06.396Z,390
2017-08-18T07:34:47.059Z,340
2017-08-18T07:35:27.748Z,335
2017-08-18T07:36:08.393Z,510
2017-08-18T07:36:48.984Z,375
2017-08-18T07:37:29.544Z,355
2017-08-18T07:38:10.127Z,395
2017-08-18T07:38:50.687Z,380
2017-08-18T07:39:32.129Z,745
2017-08-18T07:40:12.604Z,620
2017-08-18T07:40:53.125Z,1775
2017-08-18T07:41:33.718Z,790
2017-08-18T07:44:07.167Z,1745
2017-08-18T07:44:47.719Z,1650
2017-08-18T07:45:28.411Z,1725
2017-08-18T07:46:09.081Z,1695
2017-08-18T07:46:49.785Z,1450
2017-08-18T07:47:30.450Z,655
2017-08-18T07:48:11.169Z,705
2017-08-18T07:48:51.707Z,1005
2017-08-18T07:49:32.283Z,795
2017-08-18T07:50:12.916Z,1180
2017-08-18T07:50:53.607Z,1725
2017-08-18T07:51:34.439Z,555
2017-08-18T07:52:15.036Z,735
2017-08-18T07:52:55.661Z,615
2017-08-18T07:53:36.287Z,1220
2017-08-18T07:54:16.929Z,865
2017-08-18T07:54:57.794Z,1090
2017-08-18T07:57:10.930Z,530
2017-08-18T07:57:51.519Z,500
2017-08-18T07:58:32.148Z,555
2017-08-18T07:59:12.780Z,730
2017-08-18T07:59:53.471Z,715
2017-08-18T08:00:34.221Z,825
2017-08-18T08:01:14.993Z,880
2017-08-18T08:01:56.146Z,1005
2017-08-18T08:02:36.873Z,1240
2017-08-18T08:03:17.499Z,630
2017-08-18T08:03:58.178Z,575
2017-08-18T08:04:38.820Z,540
2017-08-18T08:05:19.637Z,520
2017-08-18T08:06:00.259Z,505
2017-08-18T08:06:41.002Z,535
2017-08-18T08:08:53.730Z,675
2017-08-18T08:09:34.286Z,685
2017-08-18T08:10:14.856Z,670
2017-08-18T08:10:55.325Z,690
2017-08-18T08:11:35.789Z,685
2017-08-18T08:12:16.276Z,680
2017-08-18T08:12:56.772Z,670
2017-08-18T08:13:37.263Z,785
2017-08-18T08:14:17.815Z,620
2017-08-18T08:14:58.317Z,665
2017-08-18T08:15:38.816Z,545
2017-08-18T08:16:20.065Z,530
2017-08-18T08:17:00.541Z,540
2017-08-18T08:17:41.036Z,570
2017-08-18T08:18:21.589Z,615
2017-08-18T08:19:02.159Z,690
2017-08-18T08:19:42.701Z,895
2017-08-18T08:20:23.902Z,985
2017-08-18T08:21:04.417Z,1110
2017-08-18T08:21:44.901Z,875
2017-08-18T08:22:25.406Z,1140
2017-08-18T08:23:05.911Z,690
2017-08-18T08:23:46.380Z,635
2017-08-18T08:25:59.201Z,575
2017-08-18T08:26:39.639Z,570
2017-08-18T08:27:20.154Z,530
2017-08-18T08:28:00.685Z,515
2017-08-18T08:30:38.818Z,490
2017-08-18T08:31:19.283Z,465
2017-08-18T08:31:59.758Z,470
2017-08-18T08:32:40.275Z,485
2017-08-18T08:33:22.785Z,500
2017-08-18T08:34:03.773Z,545
2017-08-18T08:34:44.253Z,605
2017-08-18T08:35:24.735Z,675
2017-08-18T08:36:05.252Z,710
2017-08-18T08:36:45.738Z,695
2017-08-18T08:37:26.698Z,625
2017-08-18T08:38:07.177Z,625
2017-08-18T08:38:47.684Z,680
2017-08-18T08:39:28.181Z,685
2017-08-18T08:40:08.694Z,635
2017-08-18T08:40:49.203Z,645
2017-08-18T08:41:29.716Z,675
2017-08-18T08:42:10.865Z,895
2017-08-18T08:42:51.391Z,1215
2017-08-18T08:43:31.886Z,2760
2017-08-18T08:44:12.392Z,2640
2017-08-18T08:44:52.882Z,2685
2017-08-18T08:45:33.361Z,2675
2017-08-18T08:46:13.843Z,2610
2017-08-18T08:46:54.326Z,2620
2017-08-18T08:47:34.849Z,2685
2017-08-18T08:48:17.189Z,2660
2017-08-18T08:48:57.807Z,2620
2017-08-18T08:51:25.843Z,2575
2017-08-18T08:52:06.297Z,2430
2017-08-18T08:52:46.755Z,2080
2017-08-18T08:53:27.248Z,1650
2017-08-18T08:56:05.496Z,960
2017-08-18T08:56:46.918Z,910
2017-08-18T08:57:27.480Z,935
2017-08-18T08:58:08.092Z,1005
2017-08-18T08:58:48.555Z,1045
2017-08-18T08:59:29.131Z,1035
2017-08-18T09:00:09.684Z,1060
2017-08-18T09:00:50.244Z,1075
2017-08-18T09:01:30.828Z,1105
2017-08-18T09:02:12.005Z,1080
2017-08-18T09:02:53.360Z,1145
2017-08-18T09:03:34.958Z,1220
2017-08-18T09:04:15.558Z,1030
2017-08-18T09:04:56.788Z,850
2017-08-18T09:05:37.390Z,790
2017-08-18T09:06:17.979Z,790
2017-08-18T09:06:59.201Z,830
2017-08-18T09:07:39.799Z,870
2017-08-18T09:08:20.391Z,815
2017-08-18T09:09:00.994Z,780
2017-08-18T09:09:41.570Z,790
2017-08-18T09:10:22.139Z,760
2017-08-18T09:11:02.760Z,715
2017-08-18T09:11:43.354Z,680
2017-08-18T09:12:23.957Z,700
2017-08-18T09:13:04.543Z,850
2017-08-18T09:13:45.185Z,1310
2017-08-18T09:14:25.776Z,1680
2017-08-18T09:15:06.342Z,1810
2017-08-18T09:15:47.737Z,1050
2017-08-18T09:16:28.186Z,1340
2017-08-18T09:17:08.708Z,1665
2017-08-18T09:17:49.166Z,905
2017-08-18T09:18:30.970Z,890
2017-08-18T09:19:11.489Z,850
2017-08-18T09:19:51.982Z,1360
2017-08-18T09:22:25.142Z,980
2017-08-18T09:23:05.594Z,990
2017-08-18T09:23:46.096Z,1010
2017-08-18T09:24:26.561Z,1020
2017-08-18T09:25:07.052Z,875
2017-08-18T09:25:47.594Z,965
2017-08-18T09:26:28.236Z,945
2017-08-18T09:29:01.605Z,940
2017-08-18T09:29:42.221Z,965
2017-08-18T09:31:55.252Z,980
2017-08-18T09:32:35.768Z,1005
2017-08-18T09:33:17.366Z,990
2017-08-18T09:33:58.026Z,960
2017-08-18T09:34:38.543Z,950
2017-08-18T09:35:18.999Z,960
2017-08-18T09:35:59.501Z,960
2017-08-18T09:36:39.980Z,980
2017-08-18T09:37:20.479Z,990
2017-08-18T09:38:01.023Z,985
2017-08-18T09:38:41.509Z,995
2017-08-18T09:39:21.971Z,995
2017-08-18T09:40:02.424Z,980
2017-08-18T09:40:42.911Z,985
2017-08-18T09:41:23.500Z,1040
2017-08-18T09:42:03.986Z,965
2017-08-18T09:42:44.465Z,1075
2017-08-18T09:43:24.958Z,995
2017-08-18T09:44:05.467Z,970
2017-08-18T09:44:45.936Z,895
2017-08-18T09:45:26.545Z,1040
2017-08-18T09:46:07.047Z,970
2017-08-18T09:46:47.547Z,990
2017-08-18T09:47:28.098Z,955
2017-08-18T09:48:08.648Z,830
2017-08-18T09:48:49.143Z,885
2017-08-18T09:49:29.677Z,1050
2017-08-18T09:50:10.248Z,1120
2017-08-18T09:50:50.724Z,1100
2017-08-18T09:51:31.261Z,1140
2017-08-18T09:52:13.678Z,1125
2017-08-18T09:52:54.269Z,1100
2017-08-18T09:53:34.872Z,1065
2017-08-18T09:55:53.316Z,1245
2017-08-18T09:56:33.725Z,1160
2017-08-18T09:57:14.224Z,1255
2017-08-18T09:57:54.786Z,1440
2017-08-18T09:58:35.219Z,1730
2017-08-18T09:59:15.692Z,1690
2017-08-18T09:59:56.139Z,1945
2017-08-18T10:00:36.597Z,2075
2017-08-18T10:01:17.040Z,2160
2017-08-18T10:01:57.531Z,2235
2017-08-18T10:04:15.443Z,2580
2017-08-18T10:04:55.910Z,2695
2017-08-18T10:05:36.395Z,2885
2017-08-18T10:06:16.910Z,2950
2017-08-18T10:06:57.434Z,3070
2017-08-18T10:07:37.948Z,3190
2017-08-18T10:09:55.796Z,2725
2017-08-18T10:10:36.294Z,3070
2017-08-18T10:11:16.953Z,3100
2017-08-18T10:11:57.282Z,3050
2017-08-18T10:12:37.904Z,3000
2017-08-18T10:13:18.292Z,2940
2017-08-18T10:13:58.805Z,2890
2017-08-18T10:14:39.318Z,2985
2017-08-18T10:15:19.802Z,2815
2017-08-18T10:16:00.316Z,1960
2017-08-18T10:16:40.767Z,1080
2017-08-18T10:17:21.362Z,745
2017-08-18T10:18:01.807Z,675
2017-08-18T10:18:42.318Z,645
2017-08-18T10:19:22.824Z,580
2017-08-18T10:20:03.468Z,505
2017-08-18T10:20:43.966Z,460
2017-08-18T10:21:24.484Z,445
2017-08-18T10:22:04.923Z,430
2017-08-18T10:22:45.679Z,430
2017-08-18T10:23:26.296Z,425
2017-08-18T10:24:07.275Z,420
2017-08-18T10:24:48.371Z,415
2017-08-18T10:25:29.333Z,415
2017-08-18T10:26:10.196Z,410
2017-08-18T10:26:51.161Z,415
2017-08-18T10:27:32.029Z,410
2017-08-18T10:28:13.169Z,410
2017-08-18T10:28:54.412Z,410
2017-08-18T10:29:35.819Z,410
2017-08-18T10:30:16.848Z,415
2017-08-18T10:30:57.663Z,415
2017-08-18T10:31:38.382Z,420
2017-08-18T10:32:18.870Z,430
2017-08-18T10:32:59.521Z,445
2017-08-18T10:33:39.983Z,675
2017-08-18T10:34:20.450Z,1465
2017-08-18T10:35:00.949Z,2425
2017-08-18T10:35:41.388Z,2860
2017-08-18T10:36:21.880Z,2985
2017-08-18T10:37:03.179Z,3140
2017-08-18T10:39:15.952Z,3490
2017-08-18T10:39:56.573Z,3545
2017-08-18T10:40:37.454Z,3220
2017-08-18T10:41:18.902Z,2630
2017-08-18T10:41:59.370Z,1845
2017-08-18T10:42:39.890Z,1160
2017-08-18T10:43:20.383Z,880
2017-08-18T10:44:00.889Z,805
2017-08-18T10:44:41.363Z,585
2017-08-18T10:45:22.208Z,420
2017-08-18T10:46:02.810Z,395
2017-08-18T10:46:43.289Z,410
2017-08-18T10:47:23.826Z,465
2017-08-18T10:48:04.299Z,850
2017-08-18T10:48:44.831Z,1385
2017-08-18T10:49:25.287Z,1860
2017-08-18T10:50:05.802Z,2355
2017-08-18T10:50:46.238Z,3050
2017-08-18T10:51:26.732Z,3395
2017-08-18T10:53:39.669Z,2640
2017-08-18T10:54:20.146Z,2475
2017-08-18T10:55:00.778Z,2315
2017-08-18T10:55:41.365Z,2070
2017-08-18T10:56:22.095Z,2715
2017-08-18T10:57:04.508Z,2590
2017-08-18T10:57:44.754Z,3365
2017-08-18T10:58:25.260Z,3085
2017-08-18T10:59:06.312Z,3350
2017-08-18T10:59:46.953Z,3625
2017-08-18T11:00:27.637Z,3685
2017-08-18T11:01:08.152Z,3625
2017-08-18T11:01:48.821Z,3580
2017-08-18T11:02:29.518Z,3550
2017-08-18T11:03:10.451Z,3275